sensor_id;sensor_type;location;lat;lon;timestamp;P1;durP1;ratioP1;P2;durP2;ratioP2
62616;SDS011;62539;51.190;6.808;2022-09-24T00:01:10;2.28;;;1.48;;
62616;SDS011;62539;51.190;6.808;2022-09-24T00:03:48;2.38;;;1.50;;
62616;SDS011;62539;51.190;6.808;2022-09-24T00:06:22;2.63;;;1.55;;
62616;SDS011;62539;51.190;6.808;2022-09-24T00:08:49;1.92;;;1.42;;
62616;SDS011;62539;51.190;6.808;2022-09-24T00:11:19;3.05;;;1.60;;
62616;SDS011;62539;51.190;6.808;2022-09-24T00:13:46;3.20;;;1.20;;
62616;SDS011;62539;51.190;6.808;2022-09-24T00:16:14;3.72;;;1.60;;
62616;SDS011;62539;51.190;6.808;2022-09-24T00:18:41;1.98;;;1.40;;
62616;SDS011;62539;51.190;6.808;2022-09-24T00:21:14;2.80;;;1.58;;
62616;SDS011;62539;51.190;6.808;2022-09-24T00:23:48;2.40;;;1.58;;
62616;SDS011;62539;51.190;6.808;2022-09-24T00:26:22;2.72;;;1.60;;
62616;SDS011;62539;51.190;6.808;2022-09-24T00:29:06;2.92;;;1.70;;
62616;SDS011;62539;51.190;6.808;2022-09-24T00:31:35;1.80;;;1.38;;
62616;SDS011;62539;51.190;6.808;2022-09-24T00:34:01;3.83;;;1.52;;
62616;SDS011;62539;51.190;6.808;2022-09-24T00:36:27;4.47;;;2.28;;
62616;SDS011;62539;51.190;6.808;2022-09-24T00:38:54;2.15;;;1.63;;
62616;SDS011;62539;51.190;6.808;2022-09-24T00:41:24;3.85;;;1.67;;
62616;SDS011;62539;51.190;6.808;2022-09-24T00:43:56;1.98;;;1.38;;
62616;SDS011;62539;51.190;6.808;2022-09-24T00:49:11;2.28;;;1.50;;
62616;SDS011;62539;51.190;6.808;2022-09-24T00:51:43;1.95;;;1.60;;
62616;SDS011;62539;51.190;6.808;2022-09-24T00:54:16;3.50;;;2.00;;
62616;SDS011;62539;51.190;6.808;2022-09-24T00:56:48;3.00;;;1.42;;
62616;SDS011;62539;51.190;6.808;2022-09-24T00:59:17;3.92;;;1.50;;
62616;SDS011;62539;51.190;6.808;2022-09-24T01:01:47;4.18;;;1.60;;
62616;SDS011;62539;51.190;6.808;2022-09-24T01:04:15;3.10;;;1.60;;
62616;SDS011;62539;51.190;6.808;2022-09-24T01:06:49;4.35;;;1.70;;
62616;SDS011;62539;51.190;6.808;2022-09-24T01:09:16;2.33;;;1.30;;
62616;SDS011;62539;51.190;6.808;2022-09-24T01:14:51;2.53;;;1.60;;
62616;SDS011;62539;51.190;6.808;2022-09-24T01:23:30;2.88;;;1.50;;
62616;SDS011;62539;51.190;6.808;2022-09-24T01:29:52;2.05;;;1.35;;
62616;SDS011;62539;51.190;6.808;2022-09-24T01:32:32;2.03;;;1.35;;
62616;SDS011;62539;51.190;6.808;2022-09-24T01:35:10;1.95;;;1.65;;
62616;SDS011;62539;51.190;6.808;2022-09-24T01:38:12;2.42;;;1.52;;
62616;SDS011;62539;51.190;6.808;2022-09-24T01:40:42;2.65;;;2.03;;
62616;SDS011;62539;51.190;6.808;2022-09-24T01:43:12;2.47;;;1.58;;
62616;SDS011;62539;51.190;6.808;2022-09-24T01:45:41;2.50;;;1.60;;
62616;SDS011;62539;51.190;6.808;2022-09-24T01:48:07;1.77;;;1.50;;
62616;SDS011;62539;51.190;6.808;2022-09-24T01:50:36;2.15;;;1.40;;
62616;SDS011;62539;51.190;6.808;2022-09-24T01:53:24;1.67;;;1.23;;
62616;SDS011;62539;51.190;6.808;2022-09-24T01:56:29;2.30;;;1.50;;
62616;SDS011;62539;51.190;6.808;2022-09-24T01:59:04;2.45;;;1.50;;
62616;SDS011;62539;51.190;6.808;2022-09-24T02:01:41;2.13;;;1.70;;
62616;SDS011;62539;51.190;6.808;2022-09-24T02:04:18;2.83;;;1.67;;
62616;SDS011;62539;51.190;6.808;2022-09-24T02:06:48;1.90;;;1.55;;
62616;SDS011;62539;51.190;6.808;2022-09-24T02:12:08;1.40;;;1.30;;
62616;SDS011;62539;51.190;6.808;2022-09-24T02:14:39;2.50;;;1.40;;
62616;SDS011;62539;51.190;6.808;2022-09-24T02:17:12;1.52;;;1.15;;
62616;SDS011;62539;51.190;6.808;2022-09-24T02:19:40;2.50;;;1.50;;
62616;SDS011;62539;51.190;6.808;2022-09-24T02:22:06;3.30;;;1.67;;
62616;SDS011;62539;51.190;6.808;2022-09-24T02:27:13;1.48;;;1.35;;
62616;SDS011;62539;51.190;6.808;2022-09-24T02:29:39;2.83;;;1.98;;
62616;SDS011;62539;51.190;6.808;2022-09-24T02:32:05;1.63;;;1.23;;
62616;SDS011;62539;51.190;6.808;2022-09-24T02:34:35;3.60;;;1.52;;
62616;SDS011;62539;51.190;6.808;2022-09-24T02:37:11;1.88;;;1.45;;
62616;SDS011;62539;51.190;6.808;2022-09-24T02:39:39;1.77;;;1.48;;
62616;SDS011;62539;51.190;6.808;2022-09-24T02:42:06;2.88;;;1.40;;
62616;SDS011;62539;51.190;6.808;2022-09-24T02:44:35;2.15;;;1.58;;
62616;SDS011;62539;51.190;6.808;2022-09-24T02:47:01;2.10;;;1.35;;
62616;SDS011;62539;51.190;6.808;2022-09-24T02:49:27;2.75;;;1.40;;
62616;SDS011;62539;51.190;6.808;2022-09-24T02:51:53;2.35;;;1.40;;
62616;SDS011;62539;51.190;6.808;2022-09-24T02:54:19;2.40;;;1.58;;
62616;SDS011;62539;51.190;6.808;2022-09-24T02:56:46;2.13;;;1.38;;
62616;SDS011;62539;51.190;6.808;2022-09-24T02:59:12;1.85;;;1.50;;
62616;SDS011;62539;51.190;6.808;2022-09-24T03:01:38;1.98;;;1.40;;
62616;SDS011;62539;51.190;6.808;2022-09-24T03:04:03;2.70;;;1.42;;
62616;SDS011;62539;51.190;6.808;2022-09-24T03:06:29;1.98;;;1.33;;
62616;SDS011;62539;51.190;6.808;2022-09-24T03:08:56;2.25;;;1.40;;
62616;SDS011;62539;51.190;6.808;2022-09-24T03:11:22;1.40;;;1.13;;
62616;SDS011;62539;51.190;6.808;2022-09-24T03:13:48;2.67;;;1.60;;
62616;SDS011;62539;51.190;6.808;2022-09-24T03:16:15;2.15;;;1.45;;
62616;SDS011;62539;51.190;6.808;2022-09-24T03:18:42;2.38;;;1.50;;
62616;SDS011;62539;51.190;6.808;2022-09-24T03:21:09;2.28;;;1.40;;
62616;SDS011;62539;51.190;6.808;2022-09-24T03:23:37;3.15;;;1.60;;
62616;SDS011;62539;51.190;6.808;2022-09-24T03:26:02;3.03;;;1.45;;
62616;SDS011;62539;51.190;6.808;2022-09-24T03:28:29;2.22;;;1.40;;
62616;SDS011;62539;51.190;6.808;2022-09-24T03:30:55;3.00;;;1.77;;
62616;SDS011;62539;51.190;6.808;2022-09-24T03:33:23;4.05;;;1.30;;
62616;SDS011;62539;51.190;6.808;2022-09-24T03:35:53;1.73;;;1.30;;
62616;SDS011;62539;51.190;6.808;2022-09-24T03:38:23;1.83;;;1.50;;
62616;SDS011;62539;51.190;6.808;2022-09-24T03:40:49;2.17;;;1.55;;
62616;SDS011;62539;51.190;6.808;2022-09-24T03:43:14;1.50;;;1.13;;
62616;SDS011;62539;51.190;6.808;2022-09-24T03:45:40;2.28;;;1.67;;
62616;SDS011;62539;51.190;6.808;2022-09-24T03:48:05;2.05;;;1.38;;
62616;SDS011;62539;51.190;6.808;2022-09-24T03:50:31;1.65;;;1.55;;
62616;SDS011;62539;51.190;6.808;2022-09-24T03:53:00;1.95;;;1.42;;
62616;SDS011;62539;51.190;6.808;2022-09-24T03:55:25;1.83;;;1.55;;
62616;SDS011;62539;51.190;6.808;2022-09-24T03:57:50;3.45;;;1.60;;
62616;SDS011;62539;51.190;6.808;2022-09-24T04:00:16;2.53;;;1.70;;
62616;SDS011;62539;51.190;6.808;2022-09-24T04:02:41;2.67;;;1.77;;
62616;SDS011;62539;51.190;6.808;2022-09-24T04:05:07;2.35;;;1.83;;
62616;SDS011;62539;51.190;6.808;2022-09-24T04:07:33;1.92;;;1.65;;
62616;SDS011;62539;51.190;6.808;2022-09-24T04:09:58;4.00;;;1.50;;
62616;SDS011;62539;51.190;6.808;2022-09-24T04:12:24;2.55;;;1.77;;
62616;SDS011;62539;51.190;6.808;2022-09-24T04:14:49;1.88;;;1.40;;
62616;SDS011;62539;51.190;6.808;2022-09-24T04:17:14;1.73;;;1.40;;
62616;SDS011;62539;51.190;6.808;2022-09-24T04:19:41;2.15;;;1.70;;
62616;SDS011;62539;51.190;6.808;2022-09-24T04:22:07;3.20;;;1.70;;
62616;SDS011;62539;51.190;6.808;2022-09-24T04:24:32;3.38;;;1.58;;
62616;SDS011;62539;51.190;6.808;2022-09-24T04:26:58;2.03;;;1.50;;
62616;SDS011;62539;51.190;6.808;2022-09-24T04:29:23;1.95;;;1.48;;
62616;SDS011;62539;51.190;6.808;2022-09-24T04:31:48;2.72;;;1.50;;
62616;SDS011;62539;51.190;6.808;2022-09-24T04:34:14;3.83;;;1.80;;
62616;SDS011;62539;51.190;6.808;2022-09-24T04:36:39;2.03;;;1.50;;
62616;SDS011;62539;51.190;6.808;2022-09-24T04:39:05;2.38;;;1.60;;
62616;SDS011;62539;51.190;6.808;2022-09-24T04:41:30;1.98;;;1.50;;
62616;SDS011;62539;51.190;6.808;2022-09-24T04:43:56;1.65;;;1.48;;
62616;SDS011;62539;51.190;6.808;2022-09-24T04:46:22;2.40;;;1.60;;
62616;SDS011;62539;51.190;6.808;2022-09-24T04:48:47;1.98;;;1.60;;
62616;SDS011;62539;51.190;6.808;2022-09-24T04:51:13;1.48;;;1.35;;
62616;SDS011;62539;51.190;6.808;2022-09-24T04:53:41;2.45;;;1.60;;
62616;SDS011;62539;51.190;6.808;2022-09-24T04:56:07;3.13;;;1.75;;
62616;SDS011;62539;51.190;6.808;2022-09-24T04:58:35;2.50;;;1.75;;
62616;SDS011;62539;51.190;6.808;2022-09-24T05:01:02;2.45;;;1.50;;
62616;SDS011;62539;51.190;6.808;2022-09-24T05:03:28;2.03;;;1.60;;
62616;SDS011;62539;51.190;6.808;2022-09-24T05:05:53;3.72;;;1.55;;
62616;SDS011;62539;51.190;6.808;2022-09-24T05:08:19;2.53;;;1.65;;
62616;SDS011;62539;51.190;6.808;2022-09-24T05:10:44;2.30;;;1.52;;
62616;SDS011;62539;51.190;6.808;2022-09-24T05:13:10;1.80;;;1.60;;
62616;SDS011;62539;51.190;6.808;2022-09-24T05:15:35;1.77;;;1.48;;
62616;SDS011;62539;51.190;6.808;2022-09-24T05:18:01;2.15;;;1.50;;
62616;SDS011;62539;51.190;6.808;2022-09-24T05:20:26;2.45;;;1.60;;
62616;SDS011;62539;51.190;6.808;2022-09-24T05:22:51;2.15;;;1.50;;
62616;SDS011;62539;51.190;6.808;2022-09-24T05:25:18;1.77;;;1.48;;
62616;SDS011;62539;51.190;6.808;2022-09-24T05:27:49;2.13;;;1.38;;
62616;SDS011;62539;51.190;6.808;2022-09-24T05:30:18;1.83;;;1.48;;
62616;SDS011;62539;51.190;6.808;2022-09-24T05:32:46;3.42;;;1.60;;
62616;SDS011;62539;51.190;6.808;2022-09-24T05:35:18;3.83;;;1.45;;
62616;SDS011;62539;51.190;6.808;2022-09-24T05:37:46;2.45;;;1.50;;
62616;SDS011;62539;51.190;6.808;2022-09-24T05:40:13;1.98;;;1.50;;
62616;SDS011;62539;51.190;6.808;2022-09-24T05:43:01;2.55;;;1.52;;
62616;SDS011;62539;51.190;6.808;2022-09-24T05:45:30;1.88;;;1.48;;
62616;SDS011;62539;51.190;6.808;2022-09-24T05:47:56;2.65;;;1.77;;
62616;SDS011;62539;51.190;6.808;2022-09-24T05:50:23;2.13;;;1.70;;
62616;SDS011;62539;51.190;6.808;2022-09-24T05:52:49;1.70;;;1.50;;
62616;SDS011;62539;51.190;6.808;2022-09-24T05:55:15;3.20;;;1.67;;
62616;SDS011;62539;51.190;6.808;2022-09-24T05:57:40;3.47;;;1.88;;
62616;SDS011;62539;51.190;6.808;2022-09-24T06:00:06;2.13;;;1.60;;
62616;SDS011;62539;51.190;6.808;2022-09-24T06:02:32;2.83;;;1.42;;
62616;SDS011;62539;51.190;6.808;2022-09-24T06:04:57;1.95;;;1.65;;
62616;SDS011;62539;51.190;6.808;2022-09-24T06:07:23;2.55;;;1.60;;
62616;SDS011;62539;51.190;6.808;2022-09-24T06:09:48;3.92;;;1.73;;
62616;SDS011;62539;51.190;6.808;2022-09-24T06:12:14;4.63;;;1.58;;
62616;SDS011;62539;51.190;6.808;2022-09-24T06:14:41;2.47;;;1.80;;
62616;SDS011;62539;51.190;6.808;2022-09-24T06:17:07;4.32;;;1.70;;
62616;SDS011;62539;51.190;6.808;2022-09-24T06:19:34;2.75;;;1.60;;
62616;SDS011;62539;51.190;6.808;2022-09-24T06:21:59;2.58;;;1.77;;
62616;SDS011;62539;51.190;6.808;2022-09-24T06:24:25;2.22;;;1.60;;
62616;SDS011;62539;51.190;6.808;2022-09-24T06:26:50;3.03;;;1.70;;
62616;SDS011;62539;51.190;6.808;2022-09-24T06:29:16;5.93;;;1.75;;
62616;SDS011;62539;51.190;6.808;2022-09-24T06:31:42;4.97;;;1.52;;
62616;SDS011;62539;51.190;6.808;2022-09-24T06:34:08;1.83;;;1.38;;
62616;SDS011;62539;51.190;6.808;2022-09-24T06:36:34;9.13;;;1.90;;
62616;SDS011;62539;51.190;6.808;2022-09-24T06:38:59;3.88;;;1.50;;
62616;SDS011;62539;51.190;6.808;2022-09-24T06:41:25;3.33;;;1.58;;
62616;SDS011;62539;51.190;6.808;2022-09-24T06:43:52;2.42;;;1.83;;
62616;SDS011;62539;51.190;6.808;2022-09-24T06:46:18;9.65;;;1.92;;
62616;SDS011;62539;51.190;6.808;2022-09-24T06:48:47;6.03;;;1.88;;
62616;SDS011;62539;51.190;6.808;2022-09-24T06:51:13;3.90;;;1.70;;
62616;SDS011;62539;51.190;6.808;2022-09-24T06:53:39;3.42;;;1.73;;
62616;SDS011;62539;51.190;6.808;2022-09-24T06:56:04;6.38;;;1.80;;
62616;SDS011;62539;51.190;6.808;2022-09-24T06:58:30;3.85;;;1.67;;
62616;SDS011;62539;51.190;6.808;2022-09-24T07:00:56;2.08;;;1.55;;
62616;SDS011;62539;51.190;6.808;2022-09-24T07:03:26;5.50;;;1.90;;
62616;SDS011;62539;51.190;6.808;2022-09-24T07:05:53;5.05;;;2.00;;
62616;SDS011;62539;51.190;6.808;2022-09-24T07:08:20;3.35;;;1.92;;
62616;SDS011;62539;51.190;6.808;2022-09-24T07:10:46;4.43;;;2.10;;
62616;SDS011;62539;51.190;6.808;2022-09-24T07:13:16;4.13;;;2.35;;
62616;SDS011;62539;51.190;6.808;2022-09-24T07:15:43;7.57;;;2.30;;
62616;SDS011;62539;51.190;6.808;2022-09-24T07:18:09;9.88;;;4.75;;
62616;SDS011;62539;51.190;6.808;2022-09-24T07:20:36;9.05;;;3.75;;
62616;SDS011;62539;51.190;6.808;2022-09-24T07:23:05;7.05;;;3.45;;
62616;SDS011;62539;51.190;6.808;2022-09-24T07:25:33;5.63;;;3.15;;
62616;SDS011;62539;51.190;6.808;2022-09-24T07:28:04;9.35;;;3.30;;
62616;SDS011;62539;51.190;6.808;2022-09-24T07:30:36;6.65;;;3.05;;
62616;SDS011;62539;51.190;6.808;2022-09-24T07:33:02;7.25;;;3.10;;
62616;SDS011;62539;51.190;6.808;2022-09-24T07:35:28;8.57;;;2.97;;
62616;SDS011;62539;51.190;6.808;2022-09-24T07:37:55;7.88;;;3.13;;
62616;SDS011;62539;51.190;6.808;2022-09-24T07:40:30;11.18;;;2.80;;
62616;SDS011;62539;51.190;6.808;2022-09-24T07:42:56;15.30;;;3.22;;
62616;SDS011;62539;51.190;6.808;2022-09-24T07:45:23;7.40;;;2.70;;
62616;SDS011;62539;51.190;6.808;2022-09-24T07:47:58;13.27;;;2.90;;
62616;SDS011;62539;51.190;6.808;2022-09-24T07:50:26;9.73;;;2.83;;
62616;SDS011;62539;51.190;6.808;2022-09-24T07:52:54;14.63;;;2.70;;
62616;SDS011;62539;51.190;6.808;2022-09-24T07:55:21;11.30;;;3.55;;
62616;SDS011;62539;51.190;6.808;2022-09-24T07:57:47;11.35;;;2.90;;
62616;SDS011;62539;51.190;6.808;2022-09-24T08:00:15;8.65;;;3.15;;
62616;SDS011;62539;51.190;6.808;2022-09-24T08:02:43;8.88;;;3.25;;
62616;SDS011;62539;51.190;6.808;2022-09-24T08:05:10;14.10;;;3.75;;
62616;SDS011;62539;51.190;6.808;2022-09-24T08:07:37;11.63;;;3.50;;
62616;SDS011;62539;51.190;6.808;2022-09-24T08:10:02;9.30;;;3.78;;
62616;SDS011;62539;51.190;6.808;2022-09-24T08:12:29;20.23;;;3.67;;
62616;SDS011;62539;51.190;6.808;2022-09-24T08:14:54;11.00;;;4.25;;
62616;SDS011;62539;51.190;6.808;2022-09-24T08:17:19;20.20;;;6.40;;
62616;SDS011;62539;51.190;6.808;2022-09-24T08:19:45;15.45;;;6.47;;
62616;SDS011;62539;51.190;6.808;2022-09-24T08:22:11;14.10;;;6.97;;
62616;SDS011;62539;51.190;6.808;2022-09-24T08:24:40;11.32;;;7.45;;
62616;SDS011;62539;51.190;6.808;2022-09-24T08:27:06;12.95;;;6.57;;
62616;SDS011;62539;51.190;6.808;2022-09-24T08:29:32;13.40;;;7.00;;
62616;SDS011;62539;51.190;6.808;2022-09-24T08:31:57;15.68;;;7.32;;
62616;SDS011;62539;51.190;6.808;2022-09-24T08:34:23;10.80;;;7.25;;
62616;SDS011;62539;51.190;6.808;2022-09-24T08:36:48;28.10;;;7.88;;
62616;SDS011;62539;51.190;6.808;2022-09-24T08:39:14;15.82;;;7.18;;
62616;SDS011;62539;51.190;6.808;2022-09-24T08:41:46;15.20;;;7.55;;
62616;SDS011;62539;51.190;6.808;2022-09-24T08:50:26;15.60;;;8.65;;
62616;SDS011;62539;51.190;6.808;2022-09-24T08:53:06;12.70;;;8.77;;
62616;SDS011;62539;51.190;6.808;2022-09-24T08:55:45;14.43;;;8.77;;
62616;SDS011;62539;51.190;6.808;2022-09-24T09:01:23;22.25;;;9.60;;
62616;SDS011;62539;51.190;6.808;2022-09-24T09:07:22;19.98;;;11.55;;
62616;SDS011;62539;51.190;6.808;2022-09-24T09:09:57;19.38;;;12.25;;
62616;SDS011;62539;51.190;6.808;2022-09-24T09:17:56;18.67;;;12.40;;
62616;SDS011;62539;51.190;6.808;2022-09-24T09:20:39;18.63;;;11.93;;
62616;SDS011;62539;51.190;6.808;2022-09-24T09:23:19;16.85;;;10.65;;
62616;SDS011;62539;51.190;6.808;2022-09-24T09:25:53;19.75;;;10.95;;
62616;SDS011;62539;51.190;6.808;2022-09-24T09:28:21;15.68;;;9.88;;
62616;SDS011;62539;51.190;6.808;2022-09-24T09:42:24;18.25;;;11.25;;
62616;SDS011;62539;51.190;6.808;2022-09-24T09:45:00;15.65;;;10.15;;
62616;SDS011;62539;51.190;6.808;2022-09-24T09:47:48;17.98;;;10.77;;
62616;SDS011;62539;51.190;6.808;2022-09-24T09:55:59;15.65;;;10.77;;
62616;SDS011;62539;51.190;6.808;2022-09-24T09:58:32;15.50;;;10.17;;
62616;SDS011;62539;51.190;6.808;2022-09-24T10:01:05;12.68;;;9.82;;
62616;SDS011;62539;51.190;6.808;2022-09-24T10:06:11;14.52;;;10.57;;
62616;SDS011;62539;51.190;6.808;2022-09-24T10:08:46;22.33;;;11.13;;
62616;SDS011;62539;51.190;6.808;2022-09-24T10:11:13;15.40;;;10.88;;
62616;SDS011;62539;51.190;6.808;2022-09-24T10:13:41;20.95;;;9.88;;
62616;SDS011;62539;51.190;6.808;2022-09-24T10:16:10;20.25;;;10.48;;
62616;SDS011;62539;51.190;6.808;2022-09-24T10:18:46;16.70;;;10.38;;
62616;SDS011;62539;51.190;6.808;2022-09-24T10:21:23;13.63;;;9.15;;
62616;SDS011;62539;51.190;6.808;2022-09-24T10:23:58;15.20;;;9.43;;
62616;SDS011;62539;51.190;6.808;2022-09-24T10:26:35;15.30;;;9.98;;
62616;SDS011;62539;51.190;6.808;2022-09-24T10:32:19;12.85;;;9.60;;
62616;SDS011;62539;51.190;6.808;2022-09-24T10:34:55;16.10;;;10.10;;
62616;SDS011;62539;51.190;6.808;2022-09-24T10:37:23;15.68;;;9.77;;
62616;SDS011;62539;51.190;6.808;2022-09-24T10:39:57;14.95;;;9.60;;
62616;SDS011;62539;51.190;6.808;2022-09-24T10:42:41;12.95;;;9.77;;
62616;SDS011;62539;51.190;6.808;2022-09-24T10:45:17;13.35;;;9.50;;
62616;SDS011;62539;51.190;6.808;2022-09-24T10:50:31;14.10;;;9.75;;
62616;SDS011;62539;51.190;6.808;2022-09-24T10:53:13;13.60;;;10.00;;
62616;SDS011;62539;51.190;6.808;2022-09-24T11:01:47;16.73;;;10.35;;
62616;SDS011;62539;51.190;6.808;2022-09-24T11:16:51;16.60;;;9.95;;
62616;SDS011;62539;51.190;6.808;2022-09-24T11:25:15;18.13;;;10.35;;
62616;SDS011;62539;51.190;6.808;2022-09-24T11:28:03;13.25;;;9.98;;
62616;SDS011;62539;51.190;6.808;2022-09-24T11:30:59;17.42;;;10.73;;
62616;SDS011;62539;51.190;6.808;2022-09-24T11:33:55;16.20;;;9.65;;
62616;SDS011;62539;51.190;6.808;2022-09-24T11:36:37;18.85;;;9.10;;
62616;SDS011;62539;51.190;6.808;2022-09-24T11:48:19;16.92;;;10.07;;
62616;SDS011;62539;51.190;6.808;2022-09-24T11:54:22;19.33;;;11.57;;
62616;SDS011;62539;51.190;6.808;2022-09-24T11:57:08;22.23;;;10.55;;
62616;SDS011;62539;51.190;6.808;2022-09-24T11:59:52;15.23;;;9.32;;
62616;SDS011;62539;51.190;6.808;2022-09-24T12:02:31;22.52;;;10.77;;
62616;SDS011;62539;51.190;6.808;2022-09-24T12:05:19;18.58;;;10.18;;
62616;SDS011;62539;51.190;6.808;2022-09-24T12:10:52;21.40;;;11.23;;
62616;SDS011;62539;51.190;6.808;2022-09-24T12:13:45;16.35;;;10.60;;
62616;SDS011;62539;51.190;6.808;2022-09-24T12:16:23;19.05;;;11.60;;
62616;SDS011;62539;51.190;6.808;2022-09-24T12:18:58;24.02;;;11.45;;
62616;SDS011;62539;51.190;6.808;2022-09-24T12:21:33;22.30;;;11.80;;
62616;SDS011;62539;51.190;6.808;2022-09-24T12:24:12;16.33;;;11.00;;
62616;SDS011;62539;51.190;6.808;2022-09-24T12:27:14;16.60;;;11.32;;
62616;SDS011;62539;51.190;6.808;2022-09-24T12:39:30;21.63;;;13.40;;
62616;SDS011;62539;51.190;6.808;2022-09-24T12:42:07;21.48;;;13.15;;
62616;SDS011;62539;51.190;6.808;2022-09-24T12:44:41;22.33;;;13.07;;
62616;SDS011;62539;51.190;6.808;2022-09-24T12:47:25;18.63;;;13.70;;
62616;SDS011;62539;51.190;6.808;2022-09-24T12:49:57;26.02;;;15.30;;
62616;SDS011;62539;51.190;6.808;2022-09-24T12:52:48;27.60;;;14.88;;
62616;SDS011;62539;51.190;6.808;2022-09-24T12:55:21;19.85;;;14.90;;
62616;SDS011;62539;51.190;6.808;2022-09-24T12:57:53;21.05;;;14.32;;
62616;SDS011;62539;51.190;6.808;2022-09-24T13:03:01;24.85;;;17.65;;
62616;SDS011;62539;51.190;6.808;2022-09-24T13:05:45;24.30;;;15.50;;
62616;SDS011;62539;51.190;6.808;2022-09-24T13:10:37;20.80;;;14.10;;
62616;SDS011;62539;51.190;6.808;2022-09-24T13:13:14;21.65;;;14.05;;
62616;SDS011;62539;51.190;6.808;2022-09-24T13:15:57;27.13;;;13.32;;
62616;SDS011;62539;51.190;6.808;2022-09-24T13:18:27;22.48;;;12.88;;
62616;SDS011;62539;51.190;6.808;2022-09-24T13:20:57;20.90;;;12.93;;
62616;SDS011;62539;51.190;6.808;2022-09-24T13:23:42;21.85;;;12.93;;
62616;SDS011;62539;51.190;6.808;2022-09-24T13:26:32;22.98;;;13.27;;
62616;SDS011;62539;51.190;6.808;2022-09-24T13:28:59;23.02;;;12.82;;
62616;SDS011;62539;51.190;6.808;2022-09-24T13:34:18;26.52;;;13.35;;
62616;SDS011;62539;51.190;6.808;2022-09-24T13:37:10;18.58;;;12.90;;
62616;SDS011;62539;51.190;6.808;2022-09-24T13:45:33;18.92;;;12.18;;
62616;SDS011;62539;51.190;6.808;2022-09-24T13:48:17;21.10;;;12.07;;
62616;SDS011;62539;51.190;6.808;2022-09-24T13:50:58;17.85;;;11.15;;
62616;SDS011;62539;51.190;6.808;2022-09-24T13:53:37;14.68;;;10.82;;
62616;SDS011;62539;51.190;6.808;2022-09-24T13:56:14;17.52;;;12.38;;
62616;SDS011;62539;51.190;6.808;2022-09-24T13:58:43;19.00;;;11.88;;
62616;SDS011;62539;51.190;6.808;2022-09-24T14:01:17;15.88;;;11.57;;
62616;SDS011;62539;51.190;6.808;2022-09-24T14:03:51;15.23;;;11.52;;
62616;SDS011;62539;51.190;6.808;2022-09-24T14:06:30;18.30;;;11.38;;
62616;SDS011;62539;51.190;6.808;2022-09-24T14:08:58;15.77;;;11.77;;
62616;SDS011;62539;51.190;6.808;2022-09-24T14:11:25;17.35;;;12.00;;
62616;SDS011;62539;51.190;6.808;2022-09-24T14:13:51;20.13;;;11.50;;
62616;SDS011;62539;51.190;6.808;2022-09-24T14:16:20;19.13;;;12.10;;
62616;SDS011;62539;51.190;6.808;2022-09-24T14:18:59;18.17;;;11.43;;
62616;SDS011;62539;51.190;6.808;2022-09-24T14:21:29;17.80;;;11.68;;
62616;SDS011;62539;51.190;6.808;2022-09-24T14:24:06;20.75;;;11.88;;
62616;SDS011;62539;51.190;6.808;2022-09-24T14:26:41;20.10;;;11.65;;
62616;SDS011;62539;51.190;6.808;2022-09-24T14:29:16;15.82;;;11.32;;
62616;SDS011;62539;51.190;6.808;2022-09-24T14:32:00;15.75;;;10.95;;
62616;SDS011;62539;51.190;6.808;2022-09-24T14:34:39;16.83;;;10.80;;
62616;SDS011;62539;51.190;6.808;2022-09-24T14:39:47;14.43;;;11.15;;
62616;SDS011;62539;51.190;6.808;2022-09-24T14:42:26;14.15;;;10.63;;
62616;SDS011;62539;51.190;6.808;2022-09-24T14:45:00;17.73;;;11.57;;
62616;SDS011;62539;51.190;6.808;2022-09-24T14:47:31;17.13;;;10.70;;
62616;SDS011;62539;51.190;6.808;2022-09-24T14:49:59;19.80;;;11.70;;
62616;SDS011;62539;51.190;6.808;2022-09-24T14:55:15;14.50;;;11.05;;
62616;SDS011;62539;51.190;6.808;2022-09-24T14:57:45;14.57;;;11.38;;
62616;SDS011;62539;51.190;6.808;2022-09-24T15:03:06;13.98;;;10.73;;
62616;SDS011;62539;51.190;6.808;2022-09-24T15:05:39;16.98;;;10.57;;
62616;SDS011;62539;51.190;6.808;2022-09-24T15:10:50;15.80;;;10.85;;
62616;SDS011;62539;51.190;6.808;2022-09-24T15:13:18;15.32;;;10.38;;
62616;SDS011;62539;51.190;6.808;2022-09-24T15:16:04;16.02;;;10.35;;
62616;SDS011;62539;51.190;6.808;2022-09-24T15:18:57;14.48;;;10.35;;
62616;SDS011;62539;51.190;6.808;2022-09-24T15:21:45;13.27;;;10.57;;
62616;SDS011;62539;51.190;6.808;2022-09-24T15:24:16;13.02;;;10.32;;
62616;SDS011;62539;51.190;6.808;2022-09-24T15:27:13;13.77;;;9.70;;
62616;SDS011;62539;51.190;6.808;2022-09-24T15:29:51;11.75;;;9.85;;
62616;SDS011;62539;51.190;6.808;2022-09-24T15:32:19;15.02;;;10.20;;
62616;SDS011;62539;51.190;6.808;2022-09-24T15:34:45;15.30;;;10.20;;
62616;SDS011;62539;51.190;6.808;2022-09-24T15:37:13;13.95;;;10.48;;
62616;SDS011;62539;51.190;6.808;2022-09-24T15:39:43;14.48;;;10.35;;
62616;SDS011;62539;51.190;6.808;2022-09-24T15:42:22;12.35;;;9.10;;
62616;SDS011;62539;51.190;6.808;2022-09-24T15:44:50;14.38;;;7.90;;
62616;SDS011;62539;51.190;6.808;2022-09-24T15:47:16;12.38;;;9.93;;
62616;SDS011;62539;51.190;6.808;2022-09-24T15:49:43;15.68;;;9.57;;
62616;SDS011;62539;51.190;6.808;2022-09-24T15:52:13;13.65;;;9.60;;
62616;SDS011;62539;51.190;6.808;2022-09-24T15:54:49;14.32;;;10.35;;
62616;SDS011;62539;51.190;6.808;2022-09-24T15:57:16;15.20;;;9.20;;
62616;SDS011;62539;51.190;6.808;2022-09-24T15:59:41;14.90;;;9.98;;
62616;SDS011;62539;51.190;6.808;2022-09-24T16:02:12;16.27;;;10.23;;
62616;SDS011;62539;51.190;6.808;2022-09-24T16:04:44;14.15;;;8.48;;
62616;SDS011;62539;51.190;6.808;2022-09-24T16:07:10;15.13;;;8.20;;
62616;SDS011;62539;51.190;6.808;2022-09-24T16:09:35;11.75;;;8.82;;
62616;SDS011;62539;51.190;6.808;2022-09-24T16:12:01;13.85;;;10.05;;
62616;SDS011;62539;51.190;6.808;2022-09-24T16:14:26;11.38;;;8.98;;
62616;SDS011;62539;51.190;6.808;2022-09-24T16:16:51;10.60;;;8.60;;
62616;SDS011;62539;51.190;6.808;2022-09-24T16:19:17;11.45;;;8.73;;
62616;SDS011;62539;51.190;6.808;2022-09-24T16:21:43;10.63;;;8.55;;
62616;SDS011;62539;51.190;6.808;2022-09-24T16:24:08;12.05;;;8.00;;
62616;SDS011;62539;51.190;6.808;2022-09-24T16:26:33;12.07;;;8.10;;
62616;SDS011;62539;51.190;6.808;2022-09-24T16:29:03;17.25;;;8.70;;
62616;SDS011;62539;51.190;6.808;2022-09-24T16:31:30;13.15;;;8.32;;
62616;SDS011;62539;51.190;6.808;2022-09-24T16:33:56;11.70;;;8.90;;
62616;SDS011;62539;51.190;6.808;2022-09-24T16:36:22;13.25;;;9.00;;
62616;SDS011;62539;51.190;6.808;2022-09-24T16:38:48;11.20;;;8.50;;
62616;SDS011;62539;51.190;6.808;2022-09-24T16:41:14;15.07;;;8.57;;
62616;SDS011;62539;51.190;6.808;2022-09-24T16:43:39;10.77;;;8.10;;
62616;SDS011;62539;51.190;6.808;2022-09-24T16:46:06;12.13;;;8.38;;
62616;SDS011;62539;51.190;6.808;2022-09-24T16:48:34;11.93;;;8.48;;
62616;SDS011;62539;51.190;6.808;2022-09-24T16:51:07;12.43;;;8.57;;
62616;SDS011;62539;51.190;6.808;2022-09-24T16:53:35;12.68;;;8.63;;
62616;SDS011;62539;51.190;6.808;2022-09-24T16:56:02;11.60;;;8.25;;
62616;SDS011;62539;51.190;6.808;2022-09-24T16:58:37;9.60;;;7.70;;
62616;SDS011;62539;51.190;6.808;2022-09-24T17:01:05;10.38;;;8.10;;
62616;SDS011;62539;51.190;6.808;2022-09-24T17:03:33;11.30;;;8.35;;
62616;SDS011;62539;51.190;6.808;2022-09-24T17:05:59;11.68;;;8.15;;
62616;SDS011;62539;51.190;6.808;2022-09-24T17:08:24;11.55;;;8.75;;
62616;SDS011;62539;51.190;6.808;2022-09-24T17:11:10;11.00;;;8.25;;
62616;SDS011;62539;51.190;6.808;2022-09-24T17:13:36;11.65;;;8.65;;
62616;SDS011;62539;51.190;6.808;2022-09-24T17:16:01;11.80;;;7.75;;
62616;SDS011;62539;51.190;6.808;2022-09-24T17:18:27;9.88;;;7.95;;